Time;durP1;ratioP1;P1;durP2;ratioP2;P2;SDS_P1;SDS_P2;PMS_P1;PMS_P2;Temp;Humidity;BMP_temperature;BMP_pressure;BME280_temperature;BME280_humidity;BME280_pressure;Samples;Min_cycle;Max_cycle;Signal;HPM_P1;HPM_P2
2021/12/27 00:00:44;;;;;;;198.83;50.80;;;;;;;-11.15;75.96;100507.30;1714384;82;21020;-71
2021/12/27 00:03:12;;;;;;;205.95;48.15;;;;;;;-11.09;75.98;100507.60;1713203;82;21053;-71
2021/12/27 00:05:39;;;;;;;123.47;35.13;;;;;;;-11.07;75.86;100503.50;1708563;82;21061;-72
2021/12/27 00:08:06;;;;;;;132.30;41.07;;;;;;;-11.02;76.14;100502.08;1726798;83;21077;-72
2021/12/27 00:10:33;;;;;;;157.73;43.20;;;;;;;-10.94;76.35;100494.87;1699958;83;21554;-71
2021/12/27 00:13:02;;;;;;;267.13;69.93;;;;;;;-10.93;76.05;100491.55;1737733;82;20926;-71
2021/12/27 00:15:29;;;;;;;166.00;47.47;;;;;;;-10.93;75.71;100493.20;1723313;81;21067;-72
2021/12/27 00:17:56;;;;;;;154.90;45.17;;;;;;;-10.96;75.64;100487.99;1756839;80;21013;-71
2021/12/27 00:20:24;;;;;;;102.47;35.70;;;;;;;-10.94;75.66;100491.48;1751260;82;21996;-72
2021/12/27 00:22:51;;;;;;;85.77;30.47;;;;;;;-10.93;75.68;100484.34;1747024;81;20998;-71
2021/12/27 00:25:19;;;;;;;95.20;33.57;;;;;;;-10.90;75.97;100484.09;1721331;83;21010;-72
2021/12/27 00:27:47;;;;;;;82.37;30.67;;;;;;;-10.85;76.00;100485.20;1725028;83;21063;-71
2021/12/27 00:30:20;;;;;;;73.50;28.90;;;;;;;-10.85;75.83;100483.94;1750505;82;21032;-72
2021/12/27 00:32:48;;;;;;;71.43;27.17;;;;;;;-10.84;76.22;100481.86;1756747;81;21786;-72
2021/12/27 00:35:18;;;;;;;69.07;27.07;;;;;;;-10.74;76.72;100479.81;1726237;83;20982;-72
2021/12/27 00:37:46;;;;;;;63.02;25.00;;;;;;;-10.65;77.08;100477.31;1756635;81;21592;-72
2021/12/27 00:40:16;;;;;;;70.57;27.67;;;;;;;-10.60;77.13;100472.08;1756282;81;21301;-71
2021/12/27 00:42:43;;;;;;;121.33;39.83;;;;;;;-10.54;76.97;100468.98;1741489;81;21529;-72
2021/12/27 00:45:11;;;;;;;100.70;36.00;;;;;;;-10.52;76.78;100471.20;1756510;80;21270;-72
2021/12/27 00:47:39;;;;;;;79.63;30.20;;;;;;;-10.50;76.49;100466.19;1745398;82;20944;-71
2021/12/27 00:50:08;;;;;;;69.30;26.73;;;;;;;-10.46;76.57;100470.22;1746117;81;21028;-71
2021/12/27 00:52:35;;;;;;;86.20;30.70;;;;;;;-10.40;76.67;100472.17;1772076;80;21024;-71
2021/12/27 00:55:06;;;;;;;71.90;30.23;;;;;;;-10.33;76.66;100475.48;1772095;81;21075;-72
2021/12/27 00:57:33;;;;;;;100.57;33.30;;;;;;;-10.31;76.52;100467.53;1753090;81;21058;-72
2021/12/27 01:00:00;;;;;;;97.17;35.03;;;;;;;-10.34;75.97;100475.00;1756301;81;21000;-72
2021/12/27 01:02:27;;;;;;;94.77;34.47;;;;;;;-10.38;75.79;100479.46;1751597;81;21107;-71
2021/12/27 01:04:54;;;;;;;87.13;31.57;;;;;;;-10.41;75.70;100475.11;1751282;81;21060;-72
2021/12/27 01:07:22;;;;;;;88.07;31.07;;;;;;;-10.47;75.24;100471.43;1698417;83;20997;-71
2021/12/27 01:15:48;;;;;;;117.07;40.20;;;;;;;-10.58;75.19;100470.50;1755809;81;21052;-72
2021/12/27 01:17:24;;;;;;;118.87;39.10;;;;;;;-10.63;74.94;100477.00;1743023;81;21036;-72
2021/12/27 01:19:51;;;;;;;89.27;33.23;;;;;;;-10.65;75.08;100477.72;1763680;81;21008;-72
2021/12/27 01:22:18;;;;;;;85.57;29.93;;;;;;;-10.71;74.75;100463.50;1756182;81;21227;-72
2021/12/27 01:24:45;;;;;;;81.40;29.97;;;;;;;-10.76;74.98;100460.73;1751387;81;20961;-71
2021/12/27 01:27:12;;;;;;;141.63;47.53;;;;;;;-10.82;74.66;100460.03;1724767;83;21621;-72
2021/12/27 01:29:39;;;;;;;156.37;50.83;;;;;;;-10.87;74.81;100466.92;1737948;82;21012;-72
2021/12/27 01:32:09;;;;;;;119.73;39.83;;;;;;;-10.87;75.01;100460.59;1763529;81;21497;-72
2021/12/27 01:34:36;;;;;;;97.27;35.07;;;;;;;-10.87;75.07;100468.19;1766447;81;21533;-72
2021/12/27 01:37:05;;;;;;;99.73;35.20;;;;;;;-10.85;75.40;100465.34;1766540;81;21529;-71
2021/12/27 01:39:32;;;;;;;83.60;31.53;;;;;;;-10.84;75.24;100459.48;1766498;81;21516;-72
2021/12/27 01:41:59;;;;;;;90.03;30.97;;;;;;;-10.80;75.73;100460.98;1766547;81;20968;-71
2021/12/27 01:44:26;;;;;;;76.07;29.60;;;;;;;-10.69;76.06;100462.78;1766419;81;21028;-72
2021/12/27 01:46:53;;;;;;;80.07;29.00;;;;;;;-10.60;76.26;100454.35;1766412;81;21737;-71
2021/12/27 01:49:20;;;;;;;76.87;29.10;;;;;;;-10.51;76.33;100452.66;1766423;81;21004;-72
2021/12/27 01:51:47;;;;;;;75.77;27.50;;;;;;;-10.42;76.41;100453.48;1766437;81;21011;-71
2021/12/27 01:54:14;;;;;;;73.67;26.17;;;;;;;-10.36;76.40;100450.87;1766741;81;21066;-72
2021/12/27 01:56:41;;;;;;;81.80;28.27;;;;;;;-10.29;76.41;100444.81;1766457;81;21051;-72
2021/12/27 01:59:08;;;;;;;71.40;27.33;;;;;;;-10.23;76.40;100444.66;1766656;81;21548;-71
2021/12/27 02:01:35;;;;;;;80.07;29.30;;;;;;;-10.15;76.37;100442.09;1766503;81;21524;-71
2021/12/27 02:04:02;;;;;;;75.50;26.33;;;;;;;-10.12;76.29;100430.81;1766724;81;21027;-71
2021/12/27 02:06:29;;;;;;;73.07;26.90;;;;;;;-10.05;76.38;100437.46;1766431;81;20992;-72
2021/12/27 02:08:56;;;;;;;80.37;28.17;;;;;;;-10.01;76.33;100436.39;1766655;81;21047;-72
2021/12/27 02:11:24;;;;;;;77.13;28.77;;;;;;;-9.99;75.97;100431.40;1766425;81;21199;-72
2021/12/27 02:13:51;;;;;;;76.90;28.43;;;;;;;-10.01;75.80;100435.12;1764279;81;20984;-72
2021/12/27 02:16:21;;;;;;;74.87;27.47;;;;;;;-10.07;75.34;100429.77;1763338;81;21043;-72
2021/12/27 02:18:49;;;;;;;66.87;28.73;;;;;;;-10.17;74.97;100428.87;1763945;81;21075;-71
2021/12/27 02:21:17;;;;;;;76.20;29.13;;;;;;;-10.24;75.00;100423.92;1763522;81;21556;-71
2021/12/27 02:23:44;;;;;;;70.53;28.27;;;;;;;-10.31;74.79;100420.66;1763782;81;21053;-71
2021/12/27 02:26:12;;;;;;;71.43;27.30;;;;;;;-10.38;74.96;100412.31;1763497;81;20988;-72
2021/12/27 02:28:39;;;;;;;81.03;31.47;;;;;;;-10.40;74.77;100414.77;1763382;81;21019;-71
2021/12/27 02:31:07;;;;;;;106.93;36.97;;;;;;;-10.48;74.66;100417.33;1763463;81;21517;-71
2021/12/27 02:33:38;;;;;;;99.07;36.87;;;;;;;-10.52;74.86;100413.33;1763393;81;21156;-72
2021/12/27 02:36:07;;;;;;;87.37;32.23;;;;;;;-10.52;74.80;100409.53;1763391;81;21481;-71
2021/12/27 02:38:39;;;;;;;81.57;29.60;;;;;;;-10.61;74.60;100405.77;1763300;81;21066;-72
2021/12/27 02:41:08;;;;;;;66.30;25.70;;;;;;;-10.65;74.54;100408.93;1763456;81;21015;-72
2021/12/27 02:43:38;;;;;;;68.27;25.57;;;;;;;-10.73;74.29;100407.69;1763381;81;21395;-71
2021/12/27 02:46:09;;;;;;;75.03;27.43;;;;;;;-10.83;74.32;100405.53;1763428;81;21055;-71
2021/12/27 02:48:46;;;;;;;67.40;27.37;;;;;;;-10.84;74.61;100407.17;1763464;81;21964;-71
2021/12/27 02:51:17;;;;;;;78.00;26.53;;;;;;;-10.81;74.79;100412.41;1763456;81;21023;-71
2021/12/27 02:53:45;;;;;;;59.30;25.92;;;;;;;-10.85;74.58;100407.98;1763532;81;21297;-71
2021/12/27 02:56:12;;;;;;;60.53;24.37;;;;;;;-10.92;74.33;100409.73;1763396;81;21719;-73
2021/12/27 02:58:38;;;;;;;74.20;26.67;;;;;;;-10.98;74.34;100408.16;1763419;81;21063;-71
2021/12/27 03:01:13;;;;;;;77.83;28.93;;;;;;;-10.99;74.64;100406.84;1763766;81;22267;-71
2021/12/27 03:03:41;;;;;;;66.40;27.10;;;;;;;-10.93;75.06;100399.55;1763323;81;21026;-72
2021/12/27 03:06:09;;;;;;;69.87;27.23;;;;;;;-10.90;75.02;100399.69;1763640;81;21499;-71
2021/12/27 03:08:37;;;;;;;69.17;27.47;;;;;;;-10.88;74.98;100393.05;1763446;81;21023;-72
2021/12/27 03:11:06;;;;;;;79.43;29.17;;;;;;;-10.92;74.71;100393.27;1763660;81;21039;-72
2021/12/27 03:13:41;;;;;;;69.70;27.07;;;;;;;-10.95;74.79;100388.46;1763352;81;21938;-72
2021/12/27 03:16:12;;;;;;;71.13;27.20;;;;;;;-10.95;74.88;100383.00;1760516;81;22309;-72
2021/12/27 03:18:42;;;;;;;70.57;25.90;;;;;;;-10.97;74.86;100389.67;1756966;81;21000;-73
2021/12/27 03:21:10;;;;;;;62.58;25.50;;;;;;;-10.96;74.95;100387.60;1757067;81;20988;-72
2021/12/27 03:23:39;;;;;;;60.33;26.17;;;;;;;-10.96;74.91;100381.67;1756933;81;21039;-72
2021/12/27 03:26:07;;;;;;;63.10;24.83;;;;;;;-10.93;75.38;100390.28;1756998;81;21071;-72
2021/12/27 03:28:35;;;;;;;65.03;25.07;;;;;;;-10.87;75.39;100389.30;1757233;81;21051;-72
2021/12/27 03:31:03;;;;;;;66.97;24.07;;;;;;;-10.81;75.72;100388.73;1756948;81;21021;-72
2021/12/27 03:33:30;;;;;;;60.30;22.60;;;;;;;-10.71;76.04;100386.26;1757202;81;21082;-72
2021/12/27 03:36:01;;;;;;;63.87;23.83;;;;;;;-10.61;76.20;100387.17;1756926;81;21304;-72
2021/12/27 03:38:33;;;;;;;61.80;22.62;;;;;;;-10.52;76.25;100386.73;1757137;81;27616;-72
2021/12/27 03:41:00;;;;;;;55.63;23.43;;;;;;;-10.45;76.23;100373.14;1757014;81;21039;-72
2021/12/27 03:43:28;;;;;;;54.57;23.00;;;;;;;-10.39;76.28;100378.52;1757092;81;21020;-72
2021/12/27 03:45:55;;;;;;;62.03;23.37;;;;;;;-10.37;76.21;100370.56;1757042;81;20940;-72
2021/12/27 03:48:22;;;;;;;63.43;23.90;;;;;;;-10.32;76.30;100367.39;1756910;81;21063;-72
2021/12/27 03:50:49;;;;;;;62.10;23.73;;;;;;;-10.31;76.30;100365.31;1756891;81;21134;-71
2021/12/27 03:53:16;;;;;;;56.33;22.60;;;;;;;-10.27;76.38;100369.33;1757066;81;21591;-72
2021/12/27 03:55:43;;;;;;;61.27;22.53;;;;;;;-10.24;76.33;100354.23;1756880;81;21000;-72
2021/12/27 03:58:23;;;;;;;52.77;21.20;;;;;;;-10.21;76.35;100352.23;1757217;81;21047;-72
2021/12/27 04:00:59;;;;;;;55.10;22.60;;;;;;;-10.18;76.39;100352.37;1755131;81;21000;-72
2021/12/27 04:03:17;;;;;;;57.93;21.57;;;;;;;-10.16;76.35;100354.18;1754811;81;21095;-72
2021/12/27 04:05:46;;;;;;;55.70;21.57;;;;;;;-10.12;76.45;100356.04;1756800;81;21016;-72
2021/12/27 04:08:17;;;;;;;58.73;22.90;;;;;;;-10.11;76.42;100353.13;1756881;81;21047;-72
2021/12/27 04:10:46;;;;;;;46.77;20.25;;;;;;;-10.09;76.53;100338.84;1757209;81;21072;-72
2021/12/27 04:13:14;;;;;;;53.83;22.23;;;;;;;-10.05;76.47;100341.99;1756947;81;21043;-72
2021/12/27 04:15:41;;;;;;;51.40;21.97;;;;;;;-10.01;76.48;100346.78;1753902;81;21962;-71
2021/12/27 04:18:11;;;;;;;52.70;21.43;;;;;;;-10.01;76.50;100344.25;1734328;82;21043;-72
2021/12/27 04:20:39;;;;;;;54.38;22.35;;;;;;;-9.96;76.61;100343.66;1734361;82;28465;-72
2021/12/27 04:23:06;;;;;;;56.70;21.53;;;;;;;-9.94;76.66;100336.99;1734413;82;21034;-72
2021/12/27 04:25:34;;;;;;;53.70;21.40;;;;;;;-9.92;76.68;100336.66;1734524;82;21486;-72
2021/12/27 04:28:01;;;;;;;55.97;20.67;;;;;;;-9.89;76.55;100335.94;1734315;82;21957;-73
2021/12/27 04:30:28;;;;;;;54.63;21.00;;;;;;;-9.86;76.49;100334.80;1734278;82;21024;-72
2021/12/27 04:32:55;;;;;;;55.93;19.37;;;;;;;-9.80;76.47;100341.80;1734613;82;21067;-72
2021/12/27 04:35:22;;;;;;;53.47;21.17;;;;;;;-9.77;76.38;100341.94;1734474;82;21059;-72
2021/12/27 04:37:50;;;;;;;58.00;20.50;;;;;;;-9.74;76.28;100335.72;1734661;82;21023;-72
2021/12/27 04:40:21;;;;;;;49.50;19.83;;;;;;;-9.72;76.24;100332.45;1734315;82;21099;-72
2021/12/27 04:42:51;;;;;;;;;;;;;;;-9.68;76.18;100339.78;1737059;82;21695;-72
2021/12/27 04:45:18;;;;;;;53.15;21.02;;;;;;;-9.67;76.06;100343.67;1734450;82;20175;-72
2021/12/27 04:47:45;;;;;;;57.67;21.20;;;;;;;-9.68;76.04;100341.05;1734704;82;21509;-72
2021/12/27 04:50:13;;;;;;;67.87;23.27;;;;;;;-9.63;75.98;100338.32;1734331;82;21044;-72
2021/12/27 04:52:41;;;;;;;86.53;32.93;;;;;;;-9.59;75.96;100340.17;1734547;82;21275;-72
2021/12/27 04:55:09;;;;;;;55.87;19.97;;;;;;;-9.58;75.94;100338.52;1734416;82;21464;-72
2021/12/27 04:57:36;;;;;;;52.63;19.20;;;;;;;-9.57;75.96;100334.77;1734538;82;21074;-72
2021/12/27 05:00:07;;;;;;;51.03;20.30;;;;;;;-9.53;76.02;100326.88;1734339;82;21552;-72
2021/12/27 05:02:34;;;;;;;;;;;;;;;-9.49;76.06;100323.68;1737356;82;21066;-72
2021/12/27 05:05:01;;;;;;;56.87;20.33;;;;;;;-9.48;76.07;100326.27;1734483;82;22001;-72
2021/12/27 05:07:28;;;;;;;50.00;19.93;;;;;;;-9.45;76.09;100321.34;1728218;82;22341;-73
2021/12/27 05:09:54;;;;;;;60.27;20.60;;;;;;;-9.40;76.18;100326.59;1705117;84;21070;-72
2021/12/27 05:12:21;;;;;;;52.63;21.03;;;;;;;-9.37;76.17;100320.38;1707252;82;21011;-72
2021/12/27 05:14:48;;;;;;;58.27;20.43;;;;;;;-9.34;76.26;100327.25;1705303;84;21039;-72
2021/12/27 05:17:16;;;;;;;56.67;20.70;;;;;;;-9.32;76.33;100322.70;1733607;81;21184;-72
2021/12/27 05:19:43;;;;;;;49.03;20.63;;;;;;;-9.31;76.50;100332.08;1752573;81;21067;-72
2021/12/27 05:22:10;;;;;;;58.33;20.60;;;;;;;-9.29;76.54;100328.31;1726868;83;21047;-72
2021/12/27 05:24:37;;;;;;;50.33;19.60;;;;;;;-9.28;76.56;100321.18;1732886;81;21057;-74
2021/12/27 05:27:05;;;;;;;48.30;18.90;;;;;;;-9.25;76.75;100320.90;1740816;81;21127;-73
2021/12/27 05:29:32;;;;;;;47.83;19.20;;;;;;;-9.24;76.72;100310.34;1749652;81;21209;-74
2021/12/27 05:32:01;;;;;;;57.87;21.27;;;;;;;-9.24;76.73;100313.73;1726827;83;21090;-73
2021/12/27 05:34:28;;;;;;;58.37;20.23;;;;;;;-9.22;76.72;100317.21;1726933;83;21428;-73
2021/12/27 05:36:56;;;;;;;51.73;19.83;;;;;;;-9.21;76.63;100315.13;1727157;83;21008;-74
2021/12/27 05:39:24;;;;;;;46.90;19.47;;;;;;;-9.21;76.55;100307.92;1726975;83;21405;-73
2021/12/27 05:41:53;;;;;;;45.77;18.53;;;;;;;-9.22;76.62;100307.06;1727191;83;22007;-73
2021/12/27 05:44:22;;;;;;;48.37;20.43;;;;;;;-9.19;76.73;100311.39;1726719;83;21493;-73
2021/12/27 05:47:09;;;;;;;47.83;16.93;;;;;;;-9.18;76.76;100303.37;1727163;83;21481;-73
2021/12/27 05:49:36;;;;;;;46.60;19.43;;;;;;;-9.15;76.74;100302.22;1705629;84;20947;-72
2021/12/27 05:52:03;;;;;;;51.30;18.70;;;;;;;-9.11;76.49;100303.69;1705813;84;21464;-72
2021/12/27 05:54:30;;;;;;;49.00;19.20;;;;;;;-9.10;76.44;100302.01;1705462;84;21212;-72
2021/12/27 05:56:57;;;;;;;43.50;17.13;;;;;;;-9.11;76.29;100301.15;1706080;84;21048;-72
2021/12/27 05:59:24;;;;;;;46.07;18.33;;;;;;;-9.08;76.27;100304.22;1705874;84;21052;-72
2021/12/27 06:01:51;;;;;;;55.77;18.90;;;;;;;-9.05;76.29;100308.14;1706221;84;20924;-71
2021/12/27 06:04:18;;;;;;;47.07;17.77;;;;;;;-9.03;76.21;100306.13;1705955;84;21595;-72
2021/12/27 06:06:45;;;;;;;51.47;17.90;;;;;;;-9.03;76.08;100301.46;1706240;84;22066;-72
2021/12/27 06:09:12;;;;;;;47.93;18.30;;;;;;;-9.04;76.11;100290.82;1705712;84;20979;-72
2021/12/27 06:11:39;;;;;;;50.93;18.70;;;;;;;-9.05;76.19;100293.77;1706138;84;20890;-72
2021/12/27 06:14:06;;;;;;;46.83;18.83;;;;;;;-9.04;76.14;100295.90;1705832;84;21091;-72
2021/12/27 06:16:34;;;;;;;48.93;18.40;;;;;;;-9.07;76.01;100291.97;1707280;82;21534;-72
2021/12/27 06:19:01;;;;;;;44.30;18.00;;;;;;;-9.10;76.04;100290.17;1722128;83;21282;-72
2021/12/27 06:21:28;;;;;;;51.63;20.07;;;;;;;-9.12;76.00;100291.77;1726478;83;21023;-72
2021/12/27 06:23:55;;;;;;;44.13;18.27;;;;;;;-9.12;76.10;100289.64;1726446;83;20996;-73
2021/12/27 06:26:22;;;;;;;50.93;19.63;;;;;;;-9.12;76.17;100295.59;1727701;82;21058;-73
2021/12/27 06:28:49;;;;;;;49.23;20.63;;;;;;;-9.10;76.20;100292.72;1649740;87;21046;-73
2021/12/27 06:31:16;;;;;;;45.27;18.87;;;;;;;-9.09;76.18;100289.77;1683694;84;21340;-74
2021/12/27 06:33:43;;;;;;;50.17;20.50;;;;;;;-9.11;76.03;100292.67;1733336;82;21006;-75
2021/12/27 06:36:10;;;;;;;57.23;23.60;;;;;;;-9.12;75.97;100297.27;1733114;82;21074;-75
2021/12/27 06:38:37;;;;;;;57.30;20.63;;;;;;;-9.12;75.99;100297.27;1733422;82;21012;-74
2021/12/27 06:41:04;;;;;;;62.13;26.50;;;;;;;-9.14;76.01;100299.76;1716309;82;21087;-74
2021/12/27 06:43:31;;;;;;;57.07;24.93;;;;;;;-9.15;75.98;100299.27;1686394;84;21812;-73
2021/12/27 06:45:59;;;;;;;60.13;26.40;;;;;;;-9.16;75.97;100300.09;1677621;84;21504;-73
2021/12/27 06:48:27;;;;;;;51.40;20.57;;;;;;;-9.17;76.00;100306.36;1705117;83;21030;-72
2021/12/27 06:50:54;;;;;;;56.80;22.37;;;;;;;-9.18;76.06;100304.23;1701111;83;21055;-73
2021/12/27 06:53:21;;;;;;;60.20;26.57;;;;;;;-9.16;76.07;100311.52;1697056;83;21320;-71
2021/12/27 06:55:48;;;;;;;52.53;21.83;;;;;;;-9.13;76.17;100314.58;1700908;83;21151;-71
2021/12/27 06:58:16;;;;;;;55.87;21.77;;;;;;;-9.16;76.12;100304.31;1701727;83;21016;-71
2021/12/27 07:00:44;;;;;;;90.07;35.03;;;;;;;-9.16;76.19;100307.70;1695879;83;21072;-73
2021/12/27 07:03:11;;;;;;;133.00;57.00;;;;;;;-9.16;76.23;100306.44;1700566;84;22265;-72
2021/12/27 07:05:38;;;;;;;83.37;34.67;;;;;;;-9.16;76.23;100305.58;1694745;84;21554;-72
2021/12/27 07:08:05;;;;;;;108.43;37.73;;;;;;;-9.15;76.29;100301.81;1699359;84;21147;-71
2021/12/27 07:10:32;;;;;;;58.83;22.83;;;;;;;-9.12;76.40;100297.27;1700891;84;21098;-73
2021/12/27 07:13:01;;;;;;;51.73;20.77;;;;;;;-9.08;76.51;100298.73;1700817;84;21024;-72
2021/12/27 07:15:29;;;;;;;46.27;18.97;;;;;;;-9.04;76.55;100292.95;1700827;84;21078;-73
2021/12/27 07:17:57;;;;;;;57.87;19.67;;;;;;;-9.03;76.64;100293.44;1700716;84;21051;-73
2021/12/27 07:20:25;;;;;;;61.93;22.67;;;;;;;-9.01;76.63;100290.53;1697545;83;21202;-72
2021/12/27 07:22:52;;;;;;;63.63;25.00;;;;;;;-8.98;76.67;100296.13;1689724;84;21039;-72
2021/12/27 07:25:18;;;;;;;54.80;22.20;;;;;;;-8.94;76.78;100297.14;1747838;81;21082;-72
2021/12/27 07:27:45;;;;;;;59.97;22.17;;;;;;;-8.86;76.89;100299.17;1731242;82;20996;-74
2021/12/27 07:30:13;;;;;;;64.17;23.13;;;;;;;-8.82;76.91;100293.39;1730976;81;21563;-74
2021/12/27 07:32:41;;;;;;;56.70;23.10;;;;;;;-8.77;76.89;100294.85;1670942;84;21146;-73
2021/12/27 07:35:10;;;;;;;67.10;25.03;;;;;;;-8.74;77.01;100286.48;1669764;84;21086;-74
2021/12/27 07:37:40;;;;;;;67.80;26.93;;;;;;;-8.71;77.15;100288.73;1730044;81;21039;-73
2021/12/27 07:40:10;;;;;;;60.12;23.20;;;;;;;-8.65;77.28;100288.09;1730883;81;21005;-74
2021/12/27 07:42:37;;;;;;;66.67;27.17;;;;;;;-8.60;77.32;100286.20;1732030;81;21059;-74
2021/12/27 07:45:05;;;;;;;61.70;24.03;;;;;;;-8.53;77.41;100278.42;1731230;81;21870;-72
2021/12/27 07:47:34;;;;;;;63.87;24.40;;;;;;;-8.43;77.50;100269.45;1730780;81;21071;-74
2021/12/27 07:50:01;;;;;;;73.37;28.77;;;;;;;-8.36;77.58;100270.11;1729841;81;21559;-73
2021/12/27 07:52:28;;;;;;;75.50;28.80;;;;;;;-8.30;77.67;100263.56;1728883;81;21096;-74
2021/12/27 07:54:55;;;;;;;66.33;26.30;;;;;;;-8.21;77.75;100264.30;1730734;81;21040;-74
2021/12/27 07:57:22;;;;;;;58.77;24.67;;;;;;;-8.15;77.83;100263.23;1730763;81;21791;-74
2021/12/27 07:59:49;;;;;;;61.37;24.27;;;;;;;-8.08;77.89;100265.61;1730195;81;21090;-72
2021/12/27 08:02:17;;;;;;;62.37;23.43;;;;;;;-8.02;77.98;100261.15;1730378;81;21052;-73
2021/12/27 08:04:45;;;;;;;55.57;23.80;;;;;;;-7.96;77.85;100263.48;1731071;81;21076;-73
2021/12/27 08:07:12;;;;;;;66.13;25.67;;;;;;;-7.92;77.79;100257.71;1731246;81;21028;-72
2021/12/27 08:09:39;;;;;;;64.83;24.53;;;;;;;-7.86;77.76;100256.65;1731265;81;21100;-73
2021/12/27 08:12:09;;;;;;;55.90;23.70;;;;;;;-7.80;77.78;100257.67;1731039;81;21004;-72
2021/12/27 08:14:36;;;;;;;62.48;26.10;;;;;;;-7.75;77.70;100264.66;1732527;81;21021;-73
2021/12/27 08:17:03;;;;;;;65.57;23.70;;;;;;;-7.68;77.68;100272.94;1735563;82;21040;-74
2021/12/27 08:19:30;;;;;;;70.40;26.43;;;;;;;-7.62;77.59;100272.28;1731607;81;21615;-73
2021/12/27 08:21:57;;;;;;;61.73;26.73;;;;;;;-7.56;77.59;100263.60;1731084;81;21100;-74
2021/12/27 08:24:24;;;;;;;55.83;24.27;;;;;;;-7.51;77.55;100257.37;1731616;82;21037;-72
2021/12/27 08:26:51;;;;;;;55.47;23.63;;;;;;;-7.45;77.53;100255.05;1731170;81;20966;-74
2021/12/27 08:29:18;;;;;;;59.97;22.77;;;;;;;-7.41;77.52;100254.33;1731016;81;21038;-72
2021/12/27 08:31:45;;;;;;;53.27;23.87;;;;;;;-7.35;77.47;100248.16;1731001;81;21032;-73
2021/12/27 08:34:12;;;;;;;56.20;23.97;;;;;;;-7.29;77.43;100248.76;1730922;81;21147;-75
2021/12/27 08:36:39;;;;;;;54.13;23.80;;;;;;;-7.23;77.40;100242.20;1734448;81;21036;-72
2021/12/27 08:39:06;;;;;;;55.10;22.90;;;;;;;-7.16;77.42;100237.30;1731609;81;21035;-72
2021/12/27 08:41:33;;;;;;;52.93;22.80;;;;;;;-7.12;77.41;100228.53;1732082;81;21533;-71
2021/12/27 08:44:03;;;;;;;51.80;20.97;;;;;;;-7.04;77.37;100236.39;1731182;81;21474;-71
2021/12/27 08:46:34;;;;;;;41.60;21.00;;;;;;;-6.99;77.36;100232.30;1733459;81;21140;-73
2021/12/27 08:49:03;;;;;;;53.27;21.40;;;;;;;-6.93;77.41;100233.77;1730817;81;21065;-74
2021/12/27 08:51:31;;;;;;;62.37;22.73;;;;;;;-6.84;77.47;100234.48;1730169;81;21020;-71
2021/12/27 08:53:58;;;;;;;53.63;24.00;;;;;;;-6.76;77.50;100236.44;1733264;81;21036;-72
2021/12/27 08:56:25;;;;;;;62.70;24.13;;;;;;;-6.64;77.51;100232.52;1730624;81;21034;-74
2021/12/27 08:58:54;;;;;;;55.97;24.20;;;;;;;-6.53;77.44;100234.55;1721526;81;22032;-73
2021/12/27 09:01:23;;;;;;;60.65;25.32;;;;;;;-6.41;77.43;100239.13;1721664;81;21145;-72
2021/12/27 09:03:50;;;;;;;49.33;22.13;;;;;;;-6.28;77.49;100236.53;1727712;81;21521;-74
2021/12/27 09:06:17;;;;;;;54.60;23.40;;;;;;;-6.16;77.50;100244.52;1724494;81;21110;-73
2021/12/27 09:08:44;;;;;;;44.63;21.57;;;;;;;-6.04;77.43;100240.57;1736815;81;21054;-71
2021/12/27 09:11:11;;;;;;;50.77;22.27;;;;;;;-5.94;77.33;100237.45;1729285;81;21139;-72
2021/12/27 09:13:38;;;;;;;51.17;23.00;;;;;;;-5.81;77.32;100235.66;1721314;81;21073;-74
2021/12/27 09:16:10;;;;;;;58.53;24.53;;;;;;;-5.67;77.33;100234.31;1720602;81;21061;-72
2021/12/27 09:18:36;;;;;;;;;;;;;;;-5.54;77.20;100232.95;1735744;81;21054;-72
2021/12/27 09:21:07;;;;;;;49.37;22.87;;;;;;;-5.44;77.00;100227.64;1741744;81;21300;-73
2021/12/27 09:23:33;;;;;;;;;;;;;;;-5.34;77.03;100221.09;1739613;81;21109;-70
2021/12/27 09:26:00;;;;;;;55.87;23.67;;;;;;;-5.25;76.96;100209.80;1737644;81;21160;-72
2021/12/27 09:28:27;;;;;;;52.77;22.73;;;;;;;-5.11;77.08;100207.56;1738542;81;21096;-72
2021/12/27 09:30:55;;;;;;;54.93;23.97;;;;;;;-5.02;76.86;100202.23;1726677;81;21067;-71
2021/12/27 09:33:22;;;;;;;44.87;21.03;;;;;;;-4.92;76.70;100198.62;1728267;82;21495;-72
2021/12/27 09:35:50;;;;;;;51.57;22.93;;;;;;;-4.82;76.61;100203.98;1726762;81;21139;-72
2021/12/27 09:38:17;;;;;;;54.23;21.73;;;;;;;-4.72;76.50;100198.21;1729546;83;21028;-72
2021/12/27 09:40:44;;;;;;;50.87;22.57;;;;;;;-4.64;76.35;100198.80;1729897;82;21023;-71
2021/12/27 09:43:11;;;;;;;57.83;23.07;;;;;;;-4.58;76.29;100188.27;1731242;81;21035;-71
2021/12/27 09:45:38;;;;;;;54.63;23.93;;;;;;;-4.50;76.22;100185.45;1727847;81;21040;-71
2021/12/27 09:48:05;;;;;;;48.57;22.17;;;;;;;-4.46;75.85;100173.61;1731057;81;21124;-70
2021/12/27 09:50:43;;;;;;;60.70;24.37;;;;;;;-4.42;75.82;100174.11;1733209;81;21055;-71
2021/12/27 09:53:11;;;;;;;65.47;27.10;;;;;;;-4.37;75.77;100176.34;1727794;82;21451;-71
2021/12/27 09:55:38;;;;;;;68.00;27.13;;;;;;;-4.27;75.74;100180.81;1734360;81;21519;-72
2021/12/27 09:58:06;;;;;;;67.17;26.93;;;;;;;-4.16;75.66;100185.26;1734998;81;21488;-72
2021/12/27 10:00:34;;;;;;;53.23;23.83;;;;;;;-4.02;75.75;100178.69;1727282;81;21158;-73
2021/12/27 10:03:02;;;;;;;70.97;25.97;;;;;;;-3.88;75.59;100173.43;1730038;82;21079;-72
2021/12/27 10:05:31;;;;;;;52.70;22.93;;;;;;;-3.68;75.65;100176.33;1733598;81;21014;-71
2021/12/27 10:07:59;;;;;;;44.00;20.85;;;;;;;-3.47;75.38;100171.95;1732102;81;21042;-70
2021/12/27 10:10:26;;;;;;;50.40;22.63;;;;;;;-3.35;75.02;100166.19;1734974;81;20999;-70
2021/12/27 10:12:53;;;;;;;43.67;20.37;;;;;;;-3.23;74.92;100168.92;1731997;81;21153;-70
2021/12/27 10:15:24;;;;;;;40.77;20.17;;;;;;;-3.13;74.79;100153.27;1728864;81;21585;-70
2021/12/27 10:17:52;;;;;;;46.17;20.77;;;;;;;-2.98;74.64;100147.06;1730284;82;20936;-69
2021/12/27 10:20:26;;;;;;;43.37;19.00;;;;;;;-2.93;74.34;100139.44;1737714;82;21012;-73
2021/12/27 10:22:55;;;;;;;60.60;24.17;;;;;;;-2.92;74.26;100143.72;1733178;82;20999;-69
2021/12/27 10:25:28;;;;;;;42.83;19.80;;;;;;;-2.85;73.96;100138.27;1731690;82;21483;-70
2021/12/27 10:27:59;;;;;;;40.77;19.63;;;;;;;-2.84;73.81;100140.83;1731520;82;20988;-72
2021/12/27 10:30:29;;;;;;;42.98;19.70;;;;;;;-2.68;74.11;100132.92;1731567;82;20990;-72
2021/12/27 10:33:14;;;;;;;;;;;;;;;-2.51;73.92;100138.25;1737956;81;21541;-72
2021/12/27 10:35:48;;;;;;;43.03;19.77;;;;;;;-2.40;73.43;100137.95;1728053;81;20464;-72
2021/12/27 10:38:31;;;;;;;65.77;27.17;;;;;;;-2.31;73.31;100134.19;1732934;81;22203;-73
2021/12/27 10:41:10;;;;;;;42.87;20.53;;;;;;;-2.29;73.25;100135.50;1731382;81;21477;-71
2021/12/27 10:43:56;;;;;;;45.88;19.60;;;;;;;-2.12;73.49;100132.68;1730628;81;21530;-72
2021/12/27 10:46:20;;;;;;;47.65;21.45;;;;;;;-1.97;73.35;100131.10;1730691;81;21083;-72
2021/12/27 10:48:57;;;;;;;43.98;21.50;;;;;;;-1.83;73.24;100135.94;1730818;81;21492;-71
2021/12/27 10:51:26;;;;;;;53.03;23.37;;;;;;;-1.69;73.13;100127.06;1744272;82;21419;-72
2021/12/27 10:53:59;;;;;;;68.30;30.93;;;;;;;-1.65;72.55;100125.83;1715641;82;21020;-72
2021/12/27 10:56:30;;;;;;;56.00;25.80;;;;;;;-1.54;72.71;100125.06;1740438;82;21014;-73
2021/12/27 10:59:00;;;;;;;44.73;20.80;;;;;;;-1.42;72.46;100123.85;1732832;81;21522;-72
2021/12/27 11:01:29;;;;;;;41.90;19.55;;;;;;;-1.39;72.26;100127.73;1704032;82;20991;-73
2021/12/27 11:04:01;;;;;;;44.63;20.53;;;;;;;-1.32;72.16;100128.65;1741799;82;21142;-73
2021/12/27 11:06:30;;;;;;;44.83;20.83;;;;;;;-1.30;72.04;100122.67;1744502;82;21607;-73
2021/12/27 11:08:58;;;;;;;47.70;24.72;;;;;;;-1.32;71.75;100119.66;1744384;82;21001;-72
2021/12/27 11:11:27;;;;;;;41.90;21.57;;;;;;;-1.28;71.81;100117.52;1723831;82;21006;-72
2021/12/27 11:13:57;;;;;;;37.37;19.83;;;;;;;-1.17;71.57;100118.02;1737196;82;21017;-71
2021/12/27 11:16:27;;;;;;;41.08;19.95;;;;;;;-1.10;71.54;100112.93;1704225;82;21119;-72